createdAt,value
2023-05-08T00:01:16.274Z,100624.34
2023-05-08T00:03:45.133Z,100621.53
2023-05-08T00:06:13.352Z,100627.56
2023-05-08T00:08:42.023Z,100624.81
2023-05-08T00:11:10.394Z,100625.69
2023-05-08T00:13:41.361Z,100629.28
2023-05-08T00:16:11.708Z,100625.59
2023-05-08T00:18:40.347Z,100624.66
2023-05-08T00:21:11.032Z,100626.44
2023-05-08T00:23:39.292Z,100624.63
2023-05-08T00:26:07.757Z,100628.16
2023-05-08T00:28:35.905Z,100619.13
2023-05-08T00:31:06.543Z,100621.88
2023-05-08T00:33:35.223Z,100625.22
2023-05-08T00:36:05.246Z,100628.75
2023-05-08T00:38:34.263Z,100625.97
2023-05-08T00:41:02.459Z,100624.16
2023-05-08T00:43:35.991Z,100624.09
2023-05-08T00:46:05.638Z,100624.03
2023-05-08T00:48:37.032Z,100623.19
2023-05-08T00:51:07.526Z,100621.22
2023-05-08T00:53:43.034Z,100628.31
2023-05-08T00:56:12.621Z,100626.50
2023-05-08T00:58:42.299Z,100635.34
2023-05-08T01:01:12.228Z,100630.09
2023-05-08T01:03:44.797Z,100627.63
2023-05-08T01:06:13.604Z,100633.09
2023-05-08T01:08:42.758Z,100625.09
2023-05-08T01:11:19.175Z,100632.13
2023-05-08T01:13:53.322Z,100624.09
2023-05-08T01:16:30.663Z,100625.84
2023-05-08T01:19:05.175Z,100611.88
2023-05-08T01:21:42.050Z,100628.66
2023-05-08T01:24:41.301Z,100630.53
2023-05-08T01:27:40.678Z,100628.88
2023-05-08T01:30:35.846Z,100634.38
2023-05-08T01:33:12.094Z,100638.72
2023-05-08T01:35:46.876Z,100628.22
2023-05-08T01:38:23.836Z,100640.44
2023-05-08T01:41:04.305Z,100637.84
2023-05-08T01:43:40.738Z,100641.34
2023-05-08T01:46:15.776Z,100639.53
2023-05-08T01:48:51.189Z,100641.41
2023-05-08T01:51:22.821Z,100642.28
2023-05-08T01:53:54.323Z,100631.59
2023-05-08T01:56:25.630Z,100642.28
2023-05-08T01:58:56.134Z,100640.44
2023-05-08T02:01:26.299Z,100637.63
2023-05-08T02:04:00.016Z,100640.41
2023-05-08T02:06:31.238Z,100647.56
2023-05-08T02:09:01.882Z,100644.16
2023-05-08T02:11:33.241Z,100643.28
2023-05-08T02:14:03.050Z,100648.72
2023-05-08T02:16:32.800Z,100643.34
2023-05-08T02:19:04.423Z,100641.56
2023-05-08T02:21:33.370Z,100647.03
2023-05-08T02:24:02.365Z,100639.84
2023-05-08T02:26:32.700Z,100639.91
2023-05-08T02:29:03.471Z,100641.69
2023-05-08T02:31:49.364Z,100638.22
2023-05-08T02:34:19.970Z,100647.28
2023-05-08T02:36:50.310Z,100650.09
2023-05-08T02:39:20.650Z,100651.44
2023-05-08T02:41:49.607Z,100653.38
2023-05-08T02:44:18.289Z,100648.13
2023-05-08T02:46:50.564Z,100653.59
2023-05-08T02:49:27.238Z,100656.31
2023-05-08T02:52:01.393Z,100655.44
2023-05-08T02:54:39.418Z,100656.41
2023-05-08T02:57:19.893Z,100646.47
2023-05-08T02:59:55.669Z,100663.50
2023-05-08T03:02:33.690Z,100660.97
2023-05-08T03:05:06.990Z,100655.59
2023-05-08T03:07:42.326Z,100660.09
2023-05-08T03:13:13.382Z,100656.84
2023-05-08T03:15:44.319Z,100655.09
2023-05-08T03:18:17.419Z,100653.44
2023-05-08T03:20:49.481Z,100650.00
2023-05-08T03:23:22.744Z,100649.25
2023-05-08T03:25:51.467Z,100648.31
2023-05-08T03:28:23.518Z,100653.81
2023-05-08T03:30:54.081Z,100649.53
2023-05-08T03:33:24.653Z,100656.69
2023-05-08T03:35:55.625Z,100659.50
2023-05-08T03:38:24.470Z,100651.56
2023-05-08T03:40:55.493Z,100660.75
2023-05-08T03:43:25.981Z,100650.81
2023-05-08T03:45:55.325Z,100644.53
2023-05-08T03:48:24.410Z,100655.38
2023-05-08T03:50:53.417Z,100650.19
2023-05-08T03:53:21.767Z,100663.59
2023-05-08T03:55:50.179Z,100660.06
2023-05-08T03:58:27.741Z,100654.81
2023-05-08T04:01:06.973Z,100663.84
2023-05-08T04:03:55.178Z,100658.31
2023-05-08T04:06:42.048Z,100662.75
2023-05-08T04:09:21.202Z,100665.41
2023-05-08T04:11:58.086Z,100667.34
2023-05-08T04:14:31.214Z,100661.09
2023-05-08T04:17:03.743Z,100670.91
2023-05-08T04:19:37.342Z,100671.94
2023-05-08T04:22:09.570Z,100674.63
2023-05-08T04:24:44.459Z,100673.00
2023-05-08T04:27:14.101Z,100683.78
2023-05-08T04:29:44.326Z,100681.97
2023-05-08T04:32:13.368Z,100682.09
2023-05-08T04:34:42.104Z,100684.84
2023-05-08T04:37:10.487Z,100687.66
2023-05-08T04:39:43.614Z,100684.13
2023-05-08T04:42:12.103Z,100686.88
2023-05-08T04:44:40.590Z,100687.78
2023-05-08T04:47:10.062Z,100687.88
2023-05-08T04:49:38.304Z,100696.13
2023-05-08T04:52:06.797Z,100691.72
2023-05-08T04:54:35.322Z,100691.72
2023-05-08T04:57:03.916Z,100697.91
2023-05-08T04:59:33.046Z,100703.31
2023-05-08T05:02:03.622Z,100697.97
2023-05-08T05:04:33.781Z,100699.91
2023-05-08T05:07:02.366Z,100709.66
2023-05-08T05:09:30.670Z,100700.75
2023-05-08T05:11:58.822Z,100709.50
2023-05-08T05:14:27.249Z,100708.56
2023-05-08T05:16:55.736Z,100714.78
2023-05-08T05:19:27.152Z,100712.13
2023-05-08T05:21:56.975Z,100718.28
2023-05-08T05:24:25.105Z,100698.19
2023-05-08T05:26:53.255Z,100718.16
2023-05-08T05:29:21.807Z,100718.16
2023-05-08T05:31:49.948Z,100719.16
2023-05-08T05:34:18.092Z,100723.41
2023-05-08T05:36:46.660Z,100725.22
2023-05-08T05:39:16.309Z,100729.56
2023-05-08T05:41:44.831Z,100735.94
2023-05-08T05:44:13.788Z,100740.28
2023-05-08T05:46:44.540Z,100737.56
2023-05-08T05:49:13.546Z,100732.22
2023-05-08T05:51:42.212Z,100745.91
2023-05-08T05:54:10.458Z,100744.84
2023-05-08T05:56:40.452Z,100743.94
2023-05-08T05:59:08.796Z,100742.97
2023-05-08T06:01:36.890Z,100742.25
2023-05-08T06:04:07.663Z,100739.44
2023-05-08T06:06:35.795Z,100742.84
2023-05-08T06:09:04.513Z,100748.97
2023-05-08T06:11:32.809Z,100749.75
2023-05-08T06:14:02.403Z,100749.56
2023-05-08T06:16:31.071Z,100747.41
2023-05-08T06:18:59.443Z,100749.78
2023-05-08T06:21:28.580Z,100745.72
2023-05-08T06:23:59.157Z,100757.34
2023-05-08T06:26:27.395Z,100752.91
2023-05-08T06:28:55.577Z,100757.03
2023-05-08T06:31:25.228Z,100760.25
2023-05-08T06:33:55.631Z,100761.00
2023-05-08T06:36:23.921Z,100752.91
2023-05-08T06:38:52.140Z,100756.50
2023-05-08T06:41:37.623Z,100750.44
2023-05-08T06:44:06.013Z,100763.50
2023-05-08T06:46:35.607Z,100766.94
2023-05-08T06:49:03.728Z,100766.09
2023-05-08T06:51:31.973Z,100758.78
2023-05-08T06:54:00.172Z,100766.06
2023-05-08T06:56:28.493Z,100757.25
2023-05-08T06:59:07.845Z,100762.44
2023-05-08T07:01:38.741Z,100761.69
2023-05-08T07:04:07.223Z,100765.06
2023-05-08T07:06:35.341Z,100767.72
2023-05-08T07:09:03.533Z,100755.03
2023-05-08T07:11:31.973Z,100764.94
2023-05-08T07:14:03.311Z,100770.53
2023-05-08T07:16:31.655Z,100765.81
2023-05-08T07:19:01.155Z,100764.75
2023-05-08T07:21:31.741Z,100771.59
2023-05-08T07:23:59.917Z,100773.94
2023-05-08T07:26:28.319Z,100772.84
2023-05-08T07:28:57.079Z,100769.28
2023-05-08T07:31:25.441Z,100773.16
2023-05-08T07:33:53.600Z,100764.63
2023-05-08T07:36:23.336Z,100768.53
2023-05-08T07:38:51.514Z,100768.44
2023-05-08T07:41:19.621Z,100768.97
2023-05-08T07:43:47.778Z,100772.28
2023-05-08T07:46:19.861Z,100777.13
2023-05-08T07:48:47.951Z,100774.44
2023-05-08T07:51:16.576Z,100775.09
2023-05-08T07:53:48.886Z,100770.47
2023-05-08T07:56:17.863Z,100777.41
2023-05-08T07:58:48.100Z,100783.53
2023-05-08T08:01:18.120Z,100788.69
2023-05-08T08:03:47.834Z,100787.63
2023-05-08T08:06:16.004Z,100794.66
2023-05-08T08:08:44.392Z,100788.53
2023-05-08T08:13:10.197Z,100791.59
2023-05-08T08:15:38.600Z,100796.19
2023-05-08T08:18:07.680Z,100796.09
2023-05-08T08:20:35.926Z,100794.59
2023-05-08T08:23:04.381Z,100803.38
2023-05-08T08:25:33.025Z,100797.84
2023-05-08T08:28:03.564Z,100802.69
2023-05-08T08:30:33.309Z,100804.88
2023-05-08T08:33:02.415Z,100805.81
2023-05-08T08:35:34.264Z,100800.06
2023-05-08T08:38:02.776Z,100800.75
2023-05-08T08:40:31.040Z,100800.63
2023-05-08T08:43:01.915Z,100794.78
2023-05-08T08:45:30.277Z,100800.47
2023-05-08T08:48:03.509Z,100796.91
2023-05-08T08:50:34.808Z,100788.13
2023-05-08T08:53:11.523Z,100796.91
2023-05-08T08:55:44.980Z,100789.69
2023-05-08T08:58:25.937Z,100795.59
2023-05-08T09:00:56.206Z,100795.09
2023-05-08T09:03:26.051Z,100802.63
2023-05-08T09:05:55.698Z,100801.03
2023-05-08T09:08:23.938Z,100802.59
2023-05-08T09:10:53.485Z,100800.78
2023-05-08T09:13:24.200Z,100813.09
2023-05-08T09:15:55.152Z,100809.75
2023-05-08T09:18:23.337Z,100806.66
2023-05-08T09:20:53.282Z,100801.13
2023-05-08T09:23:22.388Z,100782.81
2023-05-08T09:25:51.416Z,100810.00
2023-05-08T09:28:20.635Z,100804.56
2023-05-08T09:30:52.933Z,100819.78
2023-05-08T09:33:22.240Z,100820.72
2023-05-08T09:35:54.707Z,100820.88
2023-05-08T09:38:37.460Z,100819.13
2023-05-08T09:41:10.424Z,100823.34
2023-05-08T09:43:39.553Z,100814.28
2023-05-08T09:46:24.549Z,100824.84
2023-05-08T09:48:54.369Z,100829.44
2023-05-08T09:51:24.384Z,100820.09
2023-05-08T09:53:56.158Z,100828.69
2023-05-08T09:56:32.110Z,100826.91
2023-05-08T09:59:06.709Z,100832.41
2023-05-08T10:01:36.553Z,100827.28
2023-05-08T10:04:06.016Z,100831.00
2023-05-08T10:06:36.619Z,100832.59
2023-05-08T10:09:09.211Z,100835.34
2023-05-08T10:11:37.749Z,100836.94
2023-05-08T10:14:06.150Z,100837.78
2023-05-08T10:16:42.594Z,100832.94
2023-05-08T10:19:17.005Z,100832.75
2023-05-08T10:21:50.184Z,100834.19
2023-05-08T10:24:18.750Z,100838.34
2023-05-08T10:27:06.408Z,100842.63
2023-05-08T10:29:43.762Z,100834.31
2023-05-08T10:32:12.291Z,100837.03
2023-05-08T10:34:42.595Z,100828.34
2023-05-08T10:37:14.445Z,100843.91
2023-05-08T10:39:45.533Z,100828.50
2023-05-08T10:42:15.136Z,100823.56
2023-05-08T10:44:43.400Z,100826.34
2023-05-08T10:47:18.634Z,100830.84
2023-05-08T10:49:54.217Z,100823.97
2023-05-08T10:52:31.188Z,100824.34
2023-05-08T10:55:17.602Z,100818.06
2023-05-08T10:58:04.022Z,100811.16
2023-05-08T11:00:34.421Z,100811.94
2023-05-08T11:03:16.937Z,100808.31
2023-05-08T11:05:53.438Z,100814.06
2023-05-08T11:08:24.866Z,100806.56
2023-05-08T11:11:06.354Z,100814.25
2023-05-08T11:13:36.076Z,100812.44
2023-05-08T11:16:06.532Z,100811.38
2023-05-08T11:18:49.225Z,100813.19
2023-05-08T11:21:22.377Z,100811.66
2023-05-08T11:23:58.906Z,100807.97
2023-05-08T11:26:40.753Z,100813.41
2023-05-08T11:29:18.298Z,100808.66
2023-05-08T11:31:52.652Z,100808.31
2023-05-08T11:34:46.471Z,100810.16
2023-05-08T11:37:19.967Z,100807.97
2023-05-08T11:39:49.879Z,100806.28
2023-05-08T11:42:37.196Z,100806.38
2023-05-08T11:45:07.825Z,100803.16
2023-05-08T11:47:41.571Z,100796.72
2023-05-08T11:50:14.113Z,100802.97
2023-05-08T11:52:44.827Z,100802.66
2023-05-08T11:55:15.912Z,100794.72
2023-05-08T11:57:44.092Z,100790.47
2023-05-08T12:00:13.839Z,100795.03
2023-05-08T12:02:43.884Z,100793.97
2023-05-08T12:05:14.560Z,100796.94
2023-05-08T12:07:47.500Z,100800.91
2023-05-08T12:10:17.924Z,100805.00
2023-05-08T12:12:47.132Z,100797.91
2023-05-08T12:15:16.396Z,100802.97
2023-05-08T12:17:44.946Z,100801.81
2023-05-08T12:20:15.378Z,100798.53
2023-05-08T12:22:50.690Z,100800.75
2023-05-08T12:25:27.590Z,100810.56
2023-05-08T12:27:55.968Z,100803.06
2023-05-08T12:30:24.448Z,100808.06
2023-05-08T12:32:54.005Z,100800.06
2023-05-08T12:35:25.364Z,100804.41
2023-05-08T12:37:53.826Z,100811.66
2023-05-08T12:40:28.697Z,100800.16
2023-05-08T12:42:57.103Z,100800.66
2023-05-08T12:45:28.306Z,100796.22
2023-05-08T12:48:01.180Z,100792.28
2023-05-08T12:50:36.172Z,100796.88
2023-05-08T12:53:05.749Z,100794.19
2023-05-08T12:55:37.389Z,100792.66
2023-05-08T12:58:09.213Z,100792.53
2023-05-08T13:00:44.005Z,100791.88
2023-05-08T13:03:13.848Z,100791.13
2023-05-08T13:05:44.258Z,100795.53
2023-05-08T13:08:15.047Z,100795.41
2023-05-08T13:14:10.510Z,100791.00
2023-05-08T13:16:45.545Z,100788.69
2023-05-08T13:19:14.761Z,100779.97
2023-05-08T13:21:44.643Z,100783.75
2023-05-08T13:24:15.385Z,100784.75
2023-05-08T13:26:44.167Z,100788.47
2023-05-08T13:29:16.210Z,100782.22
2023-05-08T13:31:46.789Z,100767.34
2023-05-08T13:34:15.157Z,100777.88
2023-05-08T13:36:43.477Z,100786.31
2023-05-08T13:39:11.801Z,100783.47
2023-05-08T13:41:40.392Z,100780.75
2023-05-08T13:44:08.601Z,100773.81
2023-05-08T13:46:38.132Z,100775.72
2023-05-08T13:49:06.331Z,100781.59
2023-05-08T13:51:34.690Z,100781.13
2023-05-08T13:54:03.036Z,100762.88
2023-05-08T13:56:31.110Z,100780.94
2023-05-08T13:58:59.300Z,100772.34
2023-05-08T14:01:27.774Z,100776.88
2023-05-08T14:03:57.470Z,100787.28
2023-05-08T14:06:28.015Z,100777.19
2023-05-08T14:08:57.104Z,100782.78
2023-05-08T14:11:25.672Z,100772.19
2023-05-08T14:13:54.074Z,100771.31
2023-05-08T14:16:24.910Z,100776.88
2023-05-08T14:18:56.049Z,100761.66
2023-05-08T14:21:25.956Z,100763.59
2023-05-08T14:23:54.593Z,100760.38
2023-05-08T14:26:22.922Z,100752.16
2023-05-08T14:28:51.205Z,100760.47
2023-05-08T14:31:21.838Z,100739.81
2023-05-08T14:33:50.050Z,100751.88
2023-05-08T14:36:18.293Z,100749.69
2023-05-08T14:38:50.144Z,100753.78
2023-05-08T14:41:18.246Z,100747.00
2023-05-08T14:43:47.192Z,100743.66
2023-05-08T14:46:15.818Z,100744.31
2023-05-08T14:48:48.839Z,100740.56
2023-05-08T14:51:16.993Z,100734.69
2023-05-08T14:53:49.105Z,100725.69
2023-05-08T14:56:17.961Z,100729.53
2023-05-08T14:58:46.331Z,100732.56
2023-05-08T15:01:14.557Z,100733.28
2023-05-08T15:03:42.670Z,100724.22
2023-05-08T15:06:11.027Z,100727.34
2023-05-08T15:08:39.029Z,100730.72
2023-05-08T15:11:08.537Z,100725.28
2023-05-08T15:13:36.764Z,100728.03
2023-05-08T15:16:05.125Z,100716.91
2023-05-08T15:18:33.289Z,100721.81
2023-05-08T15:21:03.839Z,100721.22
2023-05-08T15:23:32.031Z,100725.44
2023-05-08T15:26:00.481Z,100723.53
2023-05-08T15:28:30.002Z,100722.03
2023-05-08T15:30:58.089Z,100736.13
2023-05-08T15:33:26.424Z,100728.72
2023-05-08T15:35:58.802Z,100734.22
2023-05-08T15:38:29.635Z,100723.13
2023-05-08T15:40:57.749Z,100730.06
2023-05-08T15:43:29.601Z,100728.47
2023-05-08T15:45:57.840Z,100720.06
2023-05-08T15:48:25.926Z,100734.56
2023-05-08T15:50:54.030Z,100736.53
2023-05-08T15:53:24.496Z,100731.19
2023-05-08T15:55:52.712Z,100727.34
2023-05-08T15:58:21.304Z,100731.47
2023-05-08T16:00:50.943Z,100733.91
2023-05-08T16:03:21.782Z,100728.63
2023-05-08T16:05:50.293Z,100726.94
2023-05-08T16:08:18.429Z,100740.19
2023-05-08T16:10:46.795Z,100744.13
2023-05-08T16:13:16.329Z,100732.25
2023-05-08T16:15:44.560Z,100745.56
2023-05-08T16:18:14.356Z,100735.63
2023-05-08T16:20:43.198Z,100732.16
2023-05-08T16:23:12.433Z,100734.19
2023-05-08T16:25:45.180Z,100729.94
2023-05-08T16:28:13.812Z,100727.75
2023-05-08T16:30:42.187Z,100720.34
2023-05-08T16:33:12.186Z,100727.50
2023-05-08T16:35:42.377Z,100723.25
2023-05-08T16:38:12.927Z,100716.31
2023-05-08T16:40:41.803Z,100726.25
2023-05-08T16:43:10.167Z,100720.09
2023-05-08T16:45:38.223Z,100718.41
2023-05-08T16:48:25.373Z,100717.44
2023-05-08T16:50:55.780Z,100711.41
2023-05-08T16:53:24.213Z,100718.16
2023-05-08T16:55:55.910Z,100707.25
2023-05-08T16:58:27.143Z,100701.09
2023-05-08T17:00:58.110Z,100708.50
2023-05-08T17:03:27.041Z,100705.97
2023-05-08T17:05:56.676Z,100704.16
2023-05-08T17:08:24.864Z,100694.81
2023-05-08T17:10:55.435Z,100693.38
2023-05-08T17:13:23.769Z,100694.63
2023-05-08T17:15:54.623Z,100701.09
2023-05-08T17:18:22.899Z,100700.69
2023-05-08T17:20:51.693Z,100696.59
2023-05-08T17:23:23.525Z,100705.06
2023-05-08T17:25:58.061Z,100704.81
2023-05-08T17:28:27.577Z,100708.84
2023-05-08T17:30:57.051Z,100713.09
2023-05-08T17:33:30.617Z,100720.19
2023-05-08T17:36:00.142Z,100722.50
2023-05-08T17:38:31.734Z,100722.41
2023-05-08T17:41:00.838Z,100727.66
2023-05-08T17:43:31.121Z,100726.28
2023-05-08T17:46:00.102Z,100724.25
2023-05-08T17:48:29.236Z,100729.66
2023-05-08T17:50:59.368Z,100724.34
2023-05-08T17:53:27.932Z,100729.72
2023-05-08T17:55:57.491Z,100735.41
2023-05-08T17:58:27.441Z,100726.59
2023-05-08T18:00:56.067Z,100725.81
2023-05-08T18:03:26.510Z,100734.09
2023-05-08T18:05:54.918Z,100731.22
2023-05-08T18:08:25.613Z,100732.34
2023-05-08T18:10:53.778Z,100731.38
2023-05-08T18:15:13.120Z,100733.81
2023-05-08T18:17:41.477Z,100721.53
2023-05-08T18:20:10.476Z,100725.34
2023-05-08T18:22:38.630Z,100720.94
2023-05-08T18:25:07.591Z,100726.41
2023-05-08T18:27:36.583Z,100726.56
2023-05-08T18:30:05.698Z,100727.59
2023-05-08T18:32:35.286Z,100732.31
2023-05-08T18:35:03.470Z,100731.75
2023-05-08T18:37:31.640Z,100728.44
2023-05-08T18:40:02.113Z,100736.78
2023-05-08T18:42:30.479Z,100733.47
2023-05-08T18:45:00.405Z,100730.06
2023-05-08T18:47:29.003Z,100739.97
2023-05-08T18:50:01.576Z,100729.34
2023-05-08T18:52:29.904Z,100734.66
2023-05-08T18:54:58.117Z,100736.59
2023-05-08T18:57:26.312Z,100738.69
2023-05-08T18:59:55.245Z,100739.56
2023-05-08T19:02:24.670Z,100738.84
2023-05-08T19:04:53.089Z,100737.81
2023-05-08T19:07:22.792Z,100738.78
2023-05-08T19:09:51.675Z,100734.25
2023-05-08T19:12:20.488Z,100728.78
2023-05-08T19:14:49.150Z,100729.66
2023-05-08T19:17:17.388Z,100722.44
2023-05-08T19:19:45.803Z,100724.25
2023-05-08T19:22:16.693Z,100735.91
2023-05-08T19:24:46.565Z,100722.59
2023-05-08T19:27:14.750Z,100736.84
2023-05-08T19:29:45.839Z,100731.56
2023-05-08T19:32:14.158Z,100731.56
2023-05-08T19:34:45.443Z,100724.44
2023-05-08T19:37:14.168Z,100730.06
2023-05-08T19:39:42.311Z,100725.53
2023-05-08T19:42:13.934Z,100723.97
2023-05-08T19:44:42.214Z,100727.53
2023-05-08T19:47:10.869Z,100725.94
2023-05-08T19:49:39.196Z,100729.59
2023-05-08T19:52:07.503Z,100742.19
2023-05-08T19:54:35.838Z,100737.69
2023-05-08T19:57:04.150Z,100724.13
2023-05-08T19:59:34.011Z,100735.31
2023-05-08T20:02:02.387Z,100737.28
2023-05-08T20:04:31.336Z,100738.31
2023-05-08T20:07:00.643Z,100738.38
2023-05-08T20:09:28.870Z,100740.28
2023-05-08T20:11:57.600Z,100734.34
2023-05-08T20:14:25.940Z,100738.88
2023-05-08T20:16:55.382Z,100739.09
2023-05-08T20:19:24.797Z,100735.59
2023-05-08T20:21:53.035Z,100735.75
2023-05-08T20:24:21.269Z,100741.25
2023-05-08T20:26:49.608Z,100747.47
2023-05-08T20:29:17.926Z,100743.22
2023-05-08T20:31:46.229Z,100739.72
2023-05-08T20:34:21.677Z,100742.44
2023-05-08T20:36:50.122Z,100736.22
2023-05-08T20:39:18.526Z,100724.75
2023-05-08T20:41:47.250Z,100730.28
2023-05-08T20:44:19.241Z,100720.41
2023-05-08T20:46:47.368Z,100724.97
2023-05-08T20:49:20.046Z,100717.06
2023-05-08T20:51:50.995Z,100709.94
2023-05-08T20:54:19.355Z,100715.47
2023-05-08T20:56:47.546Z,100719.09
2023-05-08T20:59:18.914Z,100712.06
2023-05-08T21:01:48.692Z,100717.44
2023-05-08T21:04:22.902Z,100709.38
2023-05-08T21:06:52.404Z,100705.91
2023-05-08T21:09:22.731Z,100699.78
2023-05-08T21:11:50.906Z,100702.56
2023-05-08T21:14:22.089Z,100701.91
2023-05-08T21:16:50.495Z,100695.75
2023-05-08T21:19:18.615Z,100696.75
2023-05-08T21:21:49.113Z,100690.50
2023-05-08T21:24:17.230Z,100697.78
2023-05-08T21:26:47.565Z,100703.22
2023-05-08T21:29:16.105Z,100700.72
2023-05-08T21:31:46.906Z,100697.22
2023-05-08T21:34:16.587Z,100701.81
2023-05-08T21:36:48.550Z,100701.81
2023-05-08T21:39:17.098Z,100701.00
2023-05-08T21:41:45.826Z,100710.81
2023-05-08T21:44:15.564Z,100705.44
2023-05-08T21:46:43.784Z,100704.72
2023-05-08T21:49:12.065Z,100707.44
2023-05-08T21:51:40.230Z,100687.69
2023-05-08T21:54:10.134Z,100695.41
2023-05-08T21:56:38.407Z,100699.97
2023-05-08T21:59:06.759Z,100693.06
2023-05-08T22:01:39.978Z,100694.16
2023-05-08T22:04:08.371Z,100683.56
2023-05-08T22:06:36.521Z,100692.50
2023-05-08T22:09:04.737Z,100692.56
2023-05-08T22:11:34.451Z,100683.69
2023-05-08T22:14:02.635Z,100682.19
2023-05-08T22:16:30.847Z,100670.97
2023-05-08T22:18:59.027Z,100676.53
2023-05-08T22:21:29.539Z,100671.50
2023-05-08T22:24:00.155Z,100671.78
2023-05-08T22:26:30.611Z,100663.94
2023-05-08T22:29:00.438Z,100655.81
2023-05-08T22:31:28.689Z,100659.59
2023-05-08T22:33:58.489Z,100657.31
2023-05-08T22:36:26.993Z,100654.19
2023-05-08T22:38:57.766Z,100643.00
2023-05-08T22:41:26.905Z,100648.72
2023-05-08T22:43:55.171Z,100641.00
2023-05-08T22:46:25.461Z,100640.31
2023-05-08T22:48:56.059Z,100641.41
2023-05-08T22:51:24.269Z,100629.06
2023-05-08T22:53:53.070Z,100636.19
2023-05-08T22:56:21.395Z,100625.44
2023-05-08T22:58:49.519Z,100614.06
2023-05-08T23:01:17.864Z,100629.94
2023-05-08T23:03:47.515Z,100628.28
2023-05-08T23:06:15.809Z,100628.38
2023-05-08T23:08:44.010Z,100631.97
2023-05-08T23:11:12.457Z,100628.38
2023-05-08T23:16:13.983Z,100614.94
2023-05-08T23:18:42.059Z,100617.63
2023-05-08T23:21:10.634Z,100613.13
2023-05-08T23:23:38.780Z,100607.81
2023-05-08T23:26:07.052Z,100596.44
2023-05-08T23:28:36.435Z,100608.91
2023-05-08T23:31:07.192Z,100602.81
2023-05-08T23:33:39.715Z,100601.41
2023-05-08T23:36:08.626Z,100601.75
2023-05-08T23:38:36.688Z,100604.81
2023-05-08T23:41:05.400Z,100597.16
2023-05-08T23:43:33.621Z,100599.25
2023-05-08T23:46:05.028Z,100594.06
2023-05-08T23:48:33.688Z,100587.16
2023-05-08T23:51:03.110Z,100595.31
2023-05-08T23:53:31.941Z,100587.28
2023-05-08T23:56:00.127Z,100586.34
2023-05-08T23:58:28.949Z,100591.72
